createdAt,value
2019-01-31T00:00:10.320Z,-0.92
2019-01-31T00:01:10.327Z,-0.92
2019-01-31T00:02:10.349Z,-0.86
2019-01-31T00:03:10.450Z,-0.85
2019-01-31T00:04:10.308Z,-0.85
2019-01-31T00:05:10.288Z,-0.74
2019-01-31T00:06:10.266Z,-0.77
2019-01-31T00:07:10.268Z,-0.81
2019-01-31T00:08:10.255Z,-0.80
2019-01-31T00:09:10.217Z,-0.89
2019-01-31T00:10:10.283Z,-0.83
2019-01-31T00:11:10.234Z,-0.90
2019-01-31T00:12:10.196Z,-0.86
2019-01-31T00:13:10.298Z,-0.85
2019-01-31T00:14:10.279Z,-0.90
2019-01-31T00:15:10.181Z,-0.93
2019-01-31T00:16:10.155Z,-0.93
2019-01-31T00:17:10.138Z,-1.03
2019-01-31T00:18:10.134Z,-1.07
2019-01-31T00:19:10.291Z,-1.08
2019-01-31T00:20:10.116Z,-1.03
2019-01-31T00:21:10.091Z,-1.03
2019-01-31T00:22:10.087Z,-1.18
2019-01-31T00:23:10.092Z,-1.10
2019-01-31T00:24:10.111Z,-1.15
2019-01-31T00:25:10.111Z,-1.23
2019-01-31T00:26:10.041Z,-1.17
2019-01-31T00:27:10.032Z,-1.32
2019-01-31T00:28:10.034Z,-1.28
2019-01-31T00:29:10.007Z,-1.35
2019-01-31T00:30:10.064Z,-1.31
2019-01-31T00:31:10.001Z,-1.35
2019-01-31T00:32:09.986Z,-1.41
2019-01-31T00:33:09.987Z,-1.41
2019-01-31T00:34:09.965Z,-1.47
2019-01-31T00:35:10.075Z,-1.38
2019-01-31T00:36:09.934Z,-1.33
2019-01-31T00:37:09.932Z,-1.35
2019-01-31T00:38:09.934Z,-1.39
2019-01-31T00:39:09.965Z,-1.39
2019-01-31T00:40:09.962Z,-1.39
2019-01-31T00:41:09.890Z,-1.31
2019-01-31T00:42:09.930Z,-1.29
2019-01-31T00:43:09.868Z,-1.20
2019-01-31T00:44:09.866Z,-1.25
2019-01-31T00:45:09.858Z,-1.29
2019-01-31T00:46:09.864Z,-1.21
2019-01-31T00:47:09.834Z,-1.15
2019-01-31T00:48:09.844Z,-1.14
2019-01-31T00:49:09.830Z,-1.17
2019-01-31T00:50:09.815Z,-1.25
2019-01-31T00:51:09.830Z,-1.25
2019-01-31T00:52:09.801Z,-1.21
2019-01-31T00:53:09.768Z,-1.26
2019-01-31T00:54:09.749Z,-1.29
2019-01-31T00:55:09.743Z,-1.29
2019-01-31T00:56:09.759Z,-1.32
2019-01-31T00:57:09.801Z,-1.28
2019-01-31T00:58:09.727Z,-1.38
2019-01-31T00:59:09.712Z,-1.36
2019-01-31T01:00:09.686Z,-1.36
2019-01-31T01:01:09.695Z,-1.47
2019-01-31T01:02:09.704Z,-1.41
2019-01-31T01:03:09.688Z,-1.47
2019-01-31T01:04:09.656Z,-1.51
2019-01-31T01:05:09.647Z,-1.51
2019-01-31T01:06:09.631Z,-1.49
2019-01-31T01:07:09.655Z,-1.38
2019-01-31T01:08:09.610Z,-1.38
2019-01-31T01:09:09.610Z,-1.36
2019-01-31T01:10:09.742Z,-1.33
2019-01-31T01:11:09.585Z,-1.28
2019-01-31T01:12:09.574Z,-1.29
2019-01-31T01:13:09.578Z,-1.33
2019-01-31T01:14:09.545Z,-1.32
2019-01-31T01:15:09.631Z,-1.35
2019-01-31T01:16:09.530Z,-1.31
2019-01-31T01:17:09.516Z,-1.35
2019-01-31T01:18:09.698Z,-1.29
2019-01-31T01:19:09.498Z,-1.32
2019-01-31T01:20:09.483Z,-1.33
2019-01-31T01:21:09.509Z,-1.32
2019-01-31T01:22:09.464Z,-1.39
2019-01-31T01:23:09.461Z,-1.43
2019-01-31T01:24:09.484Z,-1.38
2019-01-31T01:25:09.431Z,-1.53
2019-01-31T01:26:09.420Z,-1.59
2019-01-31T01:27:09.525Z,-1.53
2019-01-31T01:28:09.409Z,-1.51
2019-01-31T01:29:09.414Z,-1.57
2019-01-31T01:30:09.381Z,-1.57
2019-01-31T01:31:09.367Z,-1.50
2019-01-31T01:32:09.376Z,-1.41
2019-01-31T01:33:09.486Z,-1.46
2019-01-31T01:34:09.398Z,-1.35
2019-01-31T01:35:09.333Z,-1.38
2019-01-31T01:36:09.346Z,-1.32
2019-01-31T01:37:09.306Z,-1.35
2019-01-31T01:38:09.310Z,-1.38
2019-01-31T01:39:18.976Z,-1.35
2019-01-31T01:40:10.302Z,-1.32
2019-01-31T01:41:09.265Z,-1.28
2019-01-31T01:42:09.250Z,-1.28
2019-01-31T01:43:09.333Z,-1.33
2019-01-31T01:44:09.249Z,-1.29
2019-01-31T01:45:09.264Z,-1.32
2019-01-31T01:46:09.204Z,-1.38
2019-01-31T01:47:09.201Z,-1.29
2019-01-31T01:48:09.246Z,-1.33
2019-01-31T01:49:09.174Z,-1.35
2019-01-31T01:50:09.204Z,-1.33
2019-01-31T01:51:09.164Z,-1.38
2019-01-31T01:52:09.263Z,-1.29
2019-01-31T01:53:09.134Z,-1.35
2019-01-31T01:54:09.121Z,-1.33
2019-01-31T01:55:09.141Z,-1.26
2019-01-31T01:56:09.104Z,-1.32
2019-01-31T01:57:09.111Z,-1.35
2019-01-31T01:58:09.088Z,-1.28
2019-01-31T01:59:09.076Z,-1.38
2019-01-31T02:00:09.087Z,-1.35
2019-01-31T02:01:09.087Z,-1.35
2019-01-31T02:02:09.047Z,-1.33
2019-01-31T02:03:09.093Z,-1.35
2019-01-31T02:04:09.034Z,-1.32
2019-01-31T02:05:09.018Z,-1.38
2019-01-31T02:06:09.038Z,-1.28
2019-01-31T02:07:08.997Z,-1.25
2019-01-31T02:08:08.994Z,-1.25
2019-01-31T02:09:08.965Z,-1.28
2019-01-31T02:10:08.954Z,-1.36
2019-01-31T02:11:08.991Z,-1.32
2019-01-31T02:12:08.977Z,-1.35
2019-01-31T02:13:08.935Z,-1.43
2019-01-31T02:14:08.911Z,-1.36
2019-01-31T02:15:08.900Z,-1.31
2019-01-31T02:16:08.933Z,-1.38
2019-01-31T02:17:08.914Z,-1.33
2019-01-31T02:18:08.929Z,-1.38
2019-01-31T02:19:08.857Z,-1.39
2019-01-31T02:20:08.858Z,-1.41
2019-01-31T02:21:08.882Z,-1.33
2019-01-31T02:22:08.878Z,-1.35
2019-01-31T02:23:08.833Z,-1.31
2019-01-31T02:24:08.811Z,-1.35
2019-01-31T02:25:08.805Z,-1.36
2019-01-31T02:26:08.837Z,-1.36
2019-01-31T02:27:08.798Z,-1.46
2019-01-31T02:28:08.791Z,-1.36
2019-01-31T02:29:08.767Z,-1.46
2019-01-31T02:30:08.816Z,-1.49
2019-01-31T02:31:08.733Z,-1.49
2019-01-31T02:32:08.725Z,-1.50
2019-01-31T02:33:08.797Z,-1.56
2019-01-31T02:34:08.707Z,-1.53
2019-01-31T02:35:08.695Z,-1.54
2019-01-31T02:36:08.697Z,-1.57
2019-01-31T02:37:08.678Z,-1.64
2019-01-31T02:38:08.727Z,-1.56
2019-01-31T02:39:08.683Z,-1.53
2019-01-31T02:40:08.727Z,-1.53
2019-01-31T02:41:08.631Z,-1.56
2019-01-31T02:42:08.628Z,-1.65
2019-01-31T02:43:08.636Z,-1.65
2019-01-31T02:44:08.605Z,-1.65
2019-01-31T02:45:08.693Z,-1.68
2019-01-31T02:46:08.582Z,-1.74
2019-01-31T02:47:08.571Z,-1.75
2019-01-31T02:48:08.579Z,-1.72
2019-01-31T02:49:08.558Z,-1.74
2019-01-31T02:50:08.545Z,-1.77
2019-01-31T02:51:08.524Z,-1.70
2019-01-31T02:52:08.560Z,-1.68
2019-01-31T02:53:08.575Z,-1.74
2019-01-31T02:54:08.527Z,-1.78
2019-01-31T02:55:08.485Z,-1.64
2019-01-31T02:56:08.480Z,-1.67
2019-01-31T02:57:08.468Z,-1.64
2019-01-31T02:58:08.466Z,-1.74
2019-01-31T02:59:08.508Z,-1.70
2019-01-31T03:00:08.432Z,-1.72
2019-01-31T03:01:08.426Z,-1.67
2019-01-31T03:02:08.431Z,-1.65
2019-01-31T03:03:08.406Z,-1.70
2019-01-31T03:04:08.413Z,-1.72
2019-01-31T03:05:08.444Z,-1.74
2019-01-31T03:06:08.379Z,-1.68
2019-01-31T03:07:08.366Z,-1.68
2019-01-31T03:08:08.350Z,-1.65
2019-01-31T03:09:08.366Z,-1.67
2019-01-31T03:10:08.354Z,-1.65
2019-01-31T03:11:08.363Z,-1.71
2019-01-31T03:12:08.306Z,-1.70
2019-01-31T03:13:08.318Z,-1.82
2019-01-31T03:14:10.255Z,-1.67
2019-01-31T03:15:08.278Z,-1.78
2019-01-31T03:16:08.271Z,-1.82
2019-01-31T03:17:08.272Z,-1.75
2019-01-31T03:18:08.273Z,-1.78
2019-01-31T03:19:08.242Z,-1.64
2019-01-31T03:20:08.248Z,-1.65
2019-01-31T03:21:08.228Z,-1.56
2019-01-31T03:22:08.203Z,-1.67
2019-01-31T03:23:08.195Z,-1.64
2019-01-31T03:24:08.189Z,-1.59
2019-01-31T03:25:08.215Z,-1.57
2019-01-31T03:26:08.186Z,-1.51
2019-01-31T03:27:08.151Z,-1.53
2019-01-31T03:28:08.144Z,-1.53
2019-01-31T03:29:08.134Z,-1.53
2019-01-31T03:30:08.132Z,-1.51
2019-01-31T03:31:08.149Z,-1.56
2019-01-31T03:32:08.185Z,-1.51
2019-01-31T03:33:08.167Z,-1.43
2019-01-31T03:34:08.074Z,-1.36
2019-01-31T03:35:08.065Z,-1.32
2019-01-31T03:36:08.067Z,-1.32
2019-01-31T03:37:08.072Z,-1.29
2019-01-31T03:38:08.034Z,-1.29
2019-01-31T03:39:08.064Z,-1.32
2019-01-31T03:40:08.019Z,-1.28
2019-01-31T03:41:08.115Z,-1.35
2019-01-31T03:42:08.026Z,-1.32
2019-01-31T03:43:07.986Z,-1.23
2019-01-31T03:44:07.980Z,-1.29
2019-01-31T03:45:07.962Z,-1.29
2019-01-31T03:46:08.025Z,-1.17
2019-01-31T03:47:07.982Z,-1.23
2019-01-31T03:48:07.953Z,-1.14
2019-01-31T03:49:07.920Z,-1.11
2019-01-31T03:50:07.917Z,-1.08
2019-01-31T03:51:07.913Z,-1.18
2019-01-31T03:52:07.899Z,-1.11
2019-01-31T03:53:07.943Z,-1.13
2019-01-31T03:54:07.881Z,-1.14
2019-01-31T03:55:07.859Z,-1.02
2019-01-31T03:56:07.853Z,-1.11
2019-01-31T03:57:07.845Z,-1.05
2019-01-31T03:58:07.859Z,-1.08
2019-01-31T03:59:07.846Z,-1.11
2019-01-31T04:00:07.827Z,-1.10
2019-01-31T04:01:07.796Z,-1.15
2019-01-31T04:02:07.811Z,-1.11
2019-01-31T04:03:07.777Z,-1.13
2019-01-31T04:04:07.791Z,-1.17
2019-01-31T04:05:07.749Z,-1.17
2019-01-31T04:06:07.741Z,-1.08
2019-01-31T04:07:07.740Z,-1.07
2019-01-31T04:08:07.727Z,-1.05
2019-01-31T04:09:07.889Z,-1.07
2019-01-31T04:10:18.380Z,-0.95
2019-01-31T04:11:08.690Z,-0.99
2019-01-31T04:12:07.678Z,-1.03
2019-01-31T04:13:07.695Z,-1.10
2019-01-31T04:14:07.697Z,-0.95
2019-01-31T04:15:07.649Z,-0.93
2019-01-31T04:16:07.634Z,-1.05
2019-01-31T04:17:07.626Z,-0.92
2019-01-31T04:18:07.621Z,-1.02
2019-01-31T04:19:07.689Z,-0.99
2019-01-31T04:20:07.626Z,-0.99
2019-01-31T04:21:07.591Z,-1.03
2019-01-31T04:22:07.623Z,-0.96
2019-01-31T04:23:07.562Z,-1.00
2019-01-31T04:24:07.557Z,-1.02
2019-01-31T04:25:07.594Z,-1.05
2019-01-31T04:26:07.535Z,-0.99
2019-01-31T04:27:07.536Z,-0.96
2019-01-31T04:28:07.510Z,-0.97
2019-01-31T04:29:07.500Z,-0.99
2019-01-31T04:30:07.525Z,-1.03
2019-01-31T04:31:07.486Z,-1.07
2019-01-31T04:32:07.498Z,-0.96
2019-01-31T04:33:07.462Z,-1.05
2019-01-31T04:34:07.567Z,-0.99
2019-01-31T04:35:07.474Z,-0.93
2019-01-31T04:36:07.448Z,-1.02
2019-01-31T04:37:07.421Z,-0.93
2019-01-31T04:38:07.450Z,-0.93
2019-01-31T04:39:07.403Z,-0.93
2019-01-31T04:40:07.385Z,-0.90
2019-01-31T04:41:07.400Z,-0.89
2019-01-31T04:42:07.389Z,-0.86
2019-01-31T04:43:07.359Z,-0.90
2019-01-31T04:44:07.399Z,-0.86
2019-01-31T04:45:07.352Z,-0.93
2019-01-31T04:46:07.355Z,-0.83
2019-01-31T04:47:07.320Z,-0.86
2019-01-31T04:48:07.444Z,-0.90
2019-01-31T04:49:07.288Z,-0.86
2019-01-31T04:50:07.289Z,-0.81
2019-01-31T04:51:07.297Z,-0.80
2019-01-31T04:52:07.318Z,-0.85
2019-01-31T04:53:07.252Z,-0.71
2019-01-31T04:54:07.241Z,-0.77
2019-01-31T04:55:07.238Z,-0.78
2019-01-31T04:56:07.262Z,-0.73
2019-01-31T04:57:07.216Z,-0.73
2019-01-31T04:58:07.275Z,-0.73
2019-01-31T04:59:07.187Z,-0.83
2019-01-31T05:00:07.174Z,-0.59
2019-01-31T05:01:07.162Z,-0.78
2019-01-31T05:02:07.208Z,-0.65
2019-01-31T05:03:07.146Z,-0.73
2019-01-31T05:04:07.188Z,-0.74
2019-01-31T05:05:07.134Z,-0.74
2019-01-31T05:06:07.117Z,-0.67
2019-01-31T05:07:07.126Z,-0.67
2019-01-31T05:08:07.104Z,-0.70
2019-01-31T05:09:07.082Z,-0.67
2019-01-31T05:10:07.085Z,-0.65
2019-01-31T05:11:07.085Z,-0.68
2019-01-31T05:12:07.084Z,-0.65
2019-01-31T05:13:07.045Z,-0.67
2019-01-31T05:14:07.051Z,-0.65
2019-01-31T05:15:07.026Z,-0.65
2019-01-31T05:16:07.073Z,-0.65
2019-01-31T05:17:07.030Z,-0.62
2019-01-31T05:18:06.989Z,-0.68
2019-01-31T05:19:07.014Z,-0.65
2019-01-31T05:20:06.978Z,-0.63
2019-01-31T05:21:06.960Z,-0.62
2019-01-31T05:22:07.002Z,-0.63
2019-01-31T05:23:06.960Z,-0.62
2019-01-31T05:24:06.924Z,-0.62
2019-01-31T05:25:06.919Z,-0.62
2019-01-31T05:26:06.904Z,-0.62
2019-01-31T05:27:06.963Z,-0.59
2019-01-31T05:28:06.891Z,-0.67
2019-01-31T05:29:06.879Z,-0.58
2019-01-31T05:30:06.867Z,-0.56
2019-01-31T05:31:06.853Z,-0.67
2019-01-31T05:32:06.886Z,-0.56
2019-01-31T05:33:06.835Z,-0.59
2019-01-31T05:34:06.862Z,-0.60
2019-01-31T05:35:06.815Z,-0.62
2019-01-31T05:36:06.799Z,-0.62
2019-01-31T05:37:06.830Z,-0.53
2019-01-31T05:38:06.809Z,-0.63
2019-01-31T05:39:06.769Z,-0.67
2019-01-31T05:40:06.798Z,-0.59
2019-01-31T05:41:06.756Z,-0.52
2019-01-31T05:42:06.740Z,-0.56
2019-01-31T05:43:06.766Z,-0.60
2019-01-31T05:44:06.720Z,-0.63
2019-01-31T05:45:06.714Z,-0.60
2019-01-31T05:46:06.704Z,-0.52
2019-01-31T05:47:06.708Z,-0.60
2019-01-31T05:48:06.732Z,-0.56
2019-01-31T05:49:06.664Z,-0.60
2019-01-31T05:50:06.707Z,-0.60
2019-01-31T05:51:06.643Z,-0.50
2019-01-31T05:52:06.634Z,-0.50
2019-01-31T05:53:06.637Z,-0.58
2019-01-31T05:54:06.648Z,-0.58
2019-01-31T05:55:06.685Z,-0.55
2019-01-31T05:56:06.589Z,-0.62
2019-01-31T05:57:06.585Z,-0.53
2019-01-31T05:58:06.571Z,-0.49
2019-01-31T05:59:06.573Z,-0.50
2019-01-31T06:00:06.587Z,-0.49
2019-01-31T06:01:06.581Z,-0.58
2019-01-31T06:02:06.532Z,-0.55
2019-01-31T06:03:06.528Z,-0.53
2019-01-31T06:04:06.513Z,-0.59
2019-01-31T06:05:06.525Z,-0.53
2019-01-31T06:06:06.488Z,-0.47
2019-01-31T06:07:11.192Z,-0.52
2019-01-31T06:08:07.491Z,-0.55
2019-01-31T06:09:06.492Z,-0.41
2019-01-31T06:10:06.491Z,-0.49
2019-01-31T06:11:07.892Z,-0.53
2019-01-31T06:12:06.437Z,-0.44
2019-01-31T06:13:06.418Z,-0.45
2019-01-31T06:14:06.401Z,-0.39
2019-01-31T06:15:06.465Z,-0.39
2019-01-31T06:16:06.967Z,-0.38
2019-01-31T06:17:06.371Z,-0.42
2019-01-31T06:18:06.370Z,-0.42
2019-01-31T06:19:06.351Z,-0.44
2019-01-31T06:20:06.382Z,-0.39
2019-01-31T06:21:06.334Z,-0.44
2019-01-31T06:22:06.344Z,-0.45
2019-01-31T06:23:06.308Z,-0.37
2019-01-31T06:24:06.301Z,-0.41
2019-01-31T06:25:06.320Z,-0.39
2019-01-31T06:26:06.278Z,-0.37
2019-01-31T06:27:06.273Z,-0.27
2019-01-31T06:28:06.354Z,-0.39
2019-01-31T06:29:06.259Z,-0.39
2019-01-31T06:30:06.241Z,-0.34
2019-01-31T06:31:06.306Z,-0.37
2019-01-31T06:32:06.219Z,-0.35
2019-01-31T06:33:06.224Z,-0.35
2019-01-31T06:34:06.263Z,-0.35
2019-01-31T06:35:06.184Z,-0.32
2019-01-31T06:36:06.201Z,-0.31
2019-01-31T06:37:06.165Z,-0.42
2019-01-31T06:38:06.152Z,-0.30
2019-01-31T06:39:06.429Z,-0.31
2019-01-31T06:40:06.175Z,-0.32
2019-01-31T06:41:06.517Z,-0.32
2019-01-31T06:42:06.211Z,-0.32
2019-01-31T06:43:06.098Z,-0.31
2019-01-31T06:44:06.181Z,-0.31
2019-01-31T06:45:06.200Z,-0.31
2019-01-31T06:46:06.114Z,-0.31
2019-01-31T06:47:06.056Z,-0.24
2019-01-31T06:48:06.088Z,-0.24
2019-01-31T06:49:06.043Z,-0.21
2019-01-31T06:50:06.031Z,-0.34
2019-01-31T06:51:06.067Z,-0.35
2019-01-31T06:52:06.034Z,-0.30
2019-01-31T06:53:06.000Z,-0.37
2019-01-31T06:54:07.736Z,-0.21
2019-01-31T06:55:06.000Z,-0.20
2019-01-31T06:56:05.972Z,-0.24
2019-01-31T06:57:06.099Z,-0.30
2019-01-31T06:58:05.949Z,-0.27
2019-01-31T06:59:05.934Z,-0.26
2019-01-31T07:00:05.929Z,-0.26
2019-01-31T07:01:05.927Z,-0.27
2019-01-31T07:02:05.966Z,-0.26
2019-01-31T07:03:05.931Z,-0.27
2019-01-31T07:04:05.889Z,-0.26
2019-01-31T07:05:05.889Z,-0.27
2019-01-31T07:06:05.886Z,-0.23
2019-01-31T07:07:05.892Z,-0.19
2019-01-31T07:08:05.842Z,-0.26
2019-01-31T07:09:05.845Z,-0.23
2019-01-31T07:10:05.822Z,-0.27
2019-01-31T07:11:05.865Z,-0.21
2019-01-31T07:12:05.826Z,-0.23
2019-01-31T07:13:05.811Z,-0.21
2019-01-31T07:14:05.785Z,-0.20
2019-01-31T07:15:05.776Z,-0.23
2019-01-31T07:16:05.753Z,-0.17
2019-01-31T07:17:05.742Z,-0.17
2019-01-31T07:18:05.799Z,-0.20
2019-01-31T07:19:05.764Z,-0.16
2019-01-31T07:20:05.711Z,-0.19
2019-01-31T07:21:05.718Z,-0.08
2019-01-31T07:22:05.735Z,-0.16
2019-01-31T07:23:05.719Z,-0.13
2019-01-31T07:24:05.677Z,-0.17
2019-01-31T07:25:05.678Z,-0.17
2019-01-31T07:26:05.662Z,-0.08
2019-01-31T07:27:05.647Z,-0.09
2019-01-31T07:28:05.633Z,-0.08
2019-01-31T07:29:05.685Z,-0.08
2019-01-31T07:30:05.637Z,-0.03
2019-01-31T07:31:05.655Z,-0.08
2019-01-31T07:32:05.585Z,-0.05
2019-01-31T07:33:05.597Z,-0.06
2019-01-31T07:34:05.636Z,-0.05
2019-01-31T07:35:05.562Z,-0.03
2019-01-31T07:36:05.554Z,-0.03
2019-01-31T07:37:05.621Z,-0.09
2019-01-31T07:38:05.533Z,-0.03
2019-01-31T07:39:05.575Z,-0.03
2019-01-31T07:40:05.509Z,-0.06
2019-01-31T07:41:05.496Z,-0.08
2019-01-31T07:42:05.493Z,0.01
2019-01-31T07:43:05.528Z,-0.01
2019-01-31T07:44:05.470Z,0.01
2019-01-31T07:45:05.477Z,0.01
2019-01-31T07:46:05.446Z,-0.01
2019-01-31T07:47:05.447Z,-0.03
2019-01-31T07:48:05.425Z,0.02
2019-01-31T07:49:05.411Z,0.04
2019-01-31T07:50:05.513Z,-0.06
2019-01-31T07:51:05.392Z,0.02
2019-01-31T07:52:05.391Z,0.04
2019-01-31T07:53:05.368Z,0.01
2019-01-31T07:54:05.379Z,-0.03
2019-01-31T07:55:05.380Z,-0.02
2019-01-31T07:56:05.385Z,0.07
2019-01-31T07:57:05.343Z,0.08
2019-01-31T07:58:05.315Z,0.10
2019-01-31T07:59:05.321Z,0.08
2019-01-31T08:00:05.335Z,0.05
2019-01-31T08:01:05.305Z,0.02
2019-01-31T08:02:05.307Z,0.02
2019-01-31T08:03:05.284Z,0.02
2019-01-31T08:04:05.296Z,0.01
2019-01-31T08:05:05.289Z,0.07
2019-01-31T08:06:05.268Z,0.08
2019-01-31T08:07:05.228Z,0.13
2019-01-31T08:08:05.216Z,0.04
2019-01-31T08:09:05.199Z,0.05
2019-01-31T08:10:05.258Z,0.10
2019-01-31T08:11:05.201Z,0.15
2019-01-31T08:12:05.175Z,0.12
2019-01-31T08:13:05.278Z,0.16
2019-01-31T08:14:05.157Z,0.13
2019-01-31T08:15:07.699Z,0.23
2019-01-31T08:16:05.162Z,0.07
2019-01-31T08:17:05.126Z,0.05
2019-01-31T08:18:05.110Z,0.15
2019-01-31T08:19:05.104Z,0.13
2019-01-31T08:20:06.980Z,0.07
2019-01-31T08:21:05.083Z,0.12
2019-01-31T08:22:05.100Z,0.05
2019-01-31T08:23:05.084Z,0.15
2019-01-31T08:24:05.051Z,0.19
2019-01-31T08:25:05.063Z,0.16
2019-01-31T08:26:05.085Z,0.19
2019-01-31T08:27:05.025Z,0.19
2019-01-31T08:28:05.009Z,0.07
2019-01-31T08:29:04.996Z,0.10
2019-01-31T08:30:05.018Z,0.19
2019-01-31T08:31:05.047Z,0.10
2019-01-31T08:32:04.969Z,0.17
2019-01-31T08:33:04.968Z,0.19
2019-01-31T08:34:04.943Z,0.16
2019-01-31T08:35:04.979Z,0.17
2019-01-31T08:36:04.922Z,0.16
2019-01-31T08:37:04.974Z,0.22
2019-01-31T08:38:04.916Z,0.16
2019-01-31T08:39:04.898Z,0.17
2019-01-31T08:40:04.908Z,0.17
2019-01-31T08:41:04.880Z,0.19
2019-01-31T08:42:04.862Z,0.23
2019-01-31T08:43:04.888Z,0.13
2019-01-31T08:44:04.840Z,0.20
2019-01-31T08:45:04.853Z,0.17
2019-01-31T08:46:04.847Z,0.15
2019-01-31T08:47:04.812Z,0.20
2019-01-31T08:48:04.821Z,0.23
2019-01-31T08:49:04.822Z,0.22
2019-01-31T08:50:04.803Z,0.13
2019-01-31T08:51:04.772Z,0.12
2019-01-31T08:52:04.757Z,0.16
2019-01-31T08:53:04.747Z,0.16
2019-01-31T08:54:04.751Z,0.15
2019-01-31T08:55:04.783Z,0.26
2019-01-31T08:56:04.718Z,0.12
2019-01-31T08:57:04.712Z,0.19
2019-01-31T08:58:04.721Z,0.19
2019-01-31T08:59:04.695Z,0.16
2019-01-31T09:00:04.738Z,0.22
2019-01-31T09:01:04.669Z,0.31
2019-01-31T09:02:04.663Z,0.22
2019-01-31T09:03:04.642Z,0.28
2019-01-31T09:04:04.637Z,0.34
2019-01-31T09:05:04.670Z,0.30
2019-01-31T09:06:04.616Z,0.33
2019-01-31T09:07:04.614Z,0.35
2019-01-31T09:08:04.690Z,0.31
2019-01-31T09:09:04.603Z,0.31
2019-01-31T09:10:04.577Z,0.30
2019-01-31T09:11:04.588Z,0.31
2019-01-31T09:12:14.755Z,0.26
2019-01-31T09:13:05.538Z,0.25
2019-01-31T09:14:04.528Z,0.34
2019-01-31T09:15:04.546Z,0.33
2019-01-31T09:16:04.581Z,0.35
2019-01-31T09:17:04.503Z,0.37
2019-01-31T09:18:04.494Z,0.34
2019-01-31T09:19:04.481Z,0.40
2019-01-31T09:20:04.467Z,0.38
2019-01-31T09:21:04.489Z,0.34
2019-01-31T09:22:04.559Z,0.37
2019-01-31T09:23:04.438Z,0.41
2019-01-31T09:24:04.423Z,0.41
2019-01-31T09:25:04.422Z,0.37
2019-01-31T09:26:04.414Z,0.38
2019-01-31T09:27:04.439Z,0.35
2019-01-31T09:28:04.382Z,0.35
2019-01-31T09:29:04.421Z,0.37
2019-01-31T09:30:04.377Z,0.33
2019-01-31T09:31:04.362Z,0.38
2019-01-31T09:32:04.396Z,0.37
2019-01-31T09:33:04.429Z,0.48
2019-01-31T09:34:04.338Z,0.52
2019-01-31T09:35:05.199Z,0.48
2019-01-31T09:36:04.345Z,0.52
2019-01-31T09:37:04.342Z,0.53
2019-01-31T09:38:04.285Z,0.53
2019-01-31T09:39:04.343Z,0.68
2019-01-31T09:40:04.285Z,0.62
2019-01-31T09:41:04.268Z,0.70
2019-01-31T09:42:04.265Z,0.74
2019-01-31T09:43:04.249Z,0.68
2019-01-31T09:44:04.297Z,0.68
2019-01-31T09:45:04.902Z,0.71
2019-01-31T09:46:04.198Z,0.80
2019-01-31T09:47:04.226Z,0.64
2019-01-31T09:48:04.180Z,0.70
2019-01-31T09:49:04.168Z,0.64
2019-01-31T09:50:04.171Z,0.77
2019-01-31T09:51:04.149Z,0.72
2019-01-31T09:52:04.139Z,0.70
2019-01-31T09:53:04.151Z,0.77
2019-01-31T09:54:04.134Z,0.74
2019-01-31T09:55:04.104Z,0.77
2019-01-31T09:56:04.105Z,0.72
2019-01-31T09:57:04.122Z,0.78
2019-01-31T09:58:04.081Z,0.67
2019-01-31T09:59:04.067Z,0.77
2019-01-31T10:00:04.062Z,0.81
2019-01-31T10:01:04.047Z,0.77
2019-01-31T10:02:04.034Z,0.74
2019-01-31T10:03:04.066Z,0.75
2019-01-31T10:04:04.017Z,0.80
2019-01-31T10:05:04.010Z,0.71
2019-01-31T10:06:04.004Z,0.80
2019-01-31T10:07:04.016Z,0.62
2019-01-31T10:08:03.998Z,0.71
2019-01-31T10:09:04.015Z,0.60
2019-01-31T10:10:03.999Z,0.62
2019-01-31T10:11:03.953Z,0.70
2019-01-31T10:12:04.046Z,0.68
2019-01-31T10:13:03.973Z,0.64
2019-01-31T10:14:03.996Z,0.74
2019-01-31T10:15:03.971Z,0.74
2019-01-31T10:16:04.018Z,0.64
2019-01-31T10:17:03.905Z,0.74
2019-01-31T10:18:03.925Z,0.72
2019-01-31T10:19:03.870Z,0.75
2019-01-31T10:20:03.880Z,0.74
2019-01-31T10:21:03.929Z,0.74
2019-01-31T10:22:03.922Z,0.71
2019-01-31T10:23:03.906Z,0.64
2019-01-31T10:24:03.876Z,0.64
2019-01-31T10:25:03.823Z,0.75
2019-01-31T10:26:03.788Z,0.62
2019-01-31T10:27:03.809Z,0.78
2019-01-31T10:28:03.925Z,0.70
2019-01-31T10:29:03.788Z,0.82
2019-01-31T10:30:03.745Z,0.74
2019-01-31T10:31:03.751Z,0.81
2019-01-31T10:32:03.722Z,0.75
2019-01-31T10:33:03.718Z,0.77
2019-01-31T10:34:03.730Z,0.75
2019-01-31T10:35:03.735Z,0.77
2019-01-31T10:36:05.697Z,0.81
2019-01-31T10:37:03.677Z,0.89
2019-01-31T10:38:03.671Z,0.80
2019-01-31T10:39:03.695Z,0.78
2019-01-31T10:40:03.702Z,0.80
2019-01-31T10:41:03.685Z,0.80
2019-01-31T10:42:03.653Z,0.78
2019-01-31T10:43:03.642Z,0.84
2019-01-31T10:44:03.607Z,0.99
2019-01-31T10:45:03.626Z,0.84
2019-01-31T10:46:03.588Z,0.88
2019-01-31T10:47:03.709Z,0.90
2019-01-31T10:48:03.561Z,0.88
2019-01-31T10:49:03.551Z,0.88
2019-01-31T10:50:03.592Z,0.93
2019-01-31T10:51:03.552Z,0.92
2019-01-31T10:52:03.575Z,0.93
2019-01-31T10:53:03.553Z,0.92
2019-01-31T10:54:03.499Z,0.93
2019-01-31T10:55:03.490Z,1.00
2019-01-31T10:56:03.526Z,0.88
2019-01-31T10:57:03.471Z,0.93
2019-01-31T10:58:03.459Z,0.90
2019-01-31T10:59:03.446Z,1.06
2019-01-31T11:00:03.521Z,0.92
2019-01-31T11:01:03.430Z,0.99
2019-01-31T11:02:03.444Z,0.99
2019-01-31T11:03:03.422Z,1.02
2019-01-31T11:04:03.397Z,0.92
2019-01-31T11:05:03.387Z,0.98
2019-01-31T11:06:03.421Z,0.90
2019-01-31T11:07:03.408Z,0.96
2019-01-31T11:08:03.362Z,0.98
2019-01-31T11:09:03.349Z,1.06
2019-01-31T11:10:03.360Z,0.98
2019-01-31T11:11:03.330Z,0.98
2019-01-31T11:12:03.416Z,1.07
2019-01-31T11:13:03.323Z,1.04
2019-01-31T11:14:03.313Z,0.98
2019-01-31T11:15:03.330Z,1.00
2019-01-31T11:16:03.290Z,0.89
2019-01-31T11:17:03.274Z,1.00
2019-01-31T11:18:03.356Z,1.00
2019-01-31T11:19:12.142Z,1.02
2019-01-31T11:20:04.236Z,1.02
2019-01-31T11:21:03.228Z,0.99
2019-01-31T11:22:03.205Z,0.95
2019-01-31T11:23:03.267Z,0.90
2019-01-31T11:24:03.192Z,0.89
2019-01-31T11:25:03.222Z,0.90
2019-01-31T11:26:03.175Z,0.88
2019-01-31T11:27:03.181Z,0.96
2019-01-31T11:28:03.173Z,0.95
2019-01-31T11:29:03.175Z,0.93
2019-01-31T11:30:03.126Z,0.92
2019-01-31T11:31:03.134Z,0.95
2019-01-31T11:32:03.118Z,0.92
2019-01-31T11:33:03.102Z,0.95
2019-01-31T11:34:03.110Z,0.89
2019-01-31T11:35:03.074Z,0.93
2019-01-31T11:36:03.092Z,1.00
2019-01-31T11:37:03.126Z,1.02
2019-01-31T11:38:03.046Z,1.00
2019-01-31T11:39:03.066Z,1.00
2019-01-31T11:40:03.033Z,1.08
2019-01-31T11:41:03.015Z,1.11
2019-01-31T11:42:03.009Z,1.08
2019-01-31T11:43:11.546Z,1.16
2019-01-31T11:44:04.043Z,1.11
2019-01-31T11:45:02.995Z,1.16
2019-01-31T11:46:02.980Z,1.25
2019-01-31T11:47:02.961Z,1.17
2019-01-31T11:48:02.968Z,1.21
2019-01-31T11:49:02.953Z,1.11
2019-01-31T11:50:02.958Z,1.29
2019-01-31T11:51:02.930Z,1.20
2019-01-31T11:52:02.910Z,1.21
2019-01-31T11:53:02.957Z,1.25
2019-01-31T11:54:02.882Z,1.18
2019-01-31T11:55:02.913Z,1.26
2019-01-31T11:56:02.868Z,1.25
2019-01-31T11:57:05.584Z,1.26
2019-01-31T11:58:02.862Z,1.32
2019-01-31T11:59:02.837Z,1.36
2019-01-31T12:00:02.854Z,1.39
2019-01-31T12:01:02.824Z,1.46
2019-01-31T12:02:02.808Z,1.57
2019-01-31T12:03:02.816Z,1.60
2019-01-31T12:04:02.785Z,1.64
2019-01-31T12:05:02.801Z,1.74
2019-01-31T12:06:02.806Z,1.71
2019-01-31T12:07:02.751Z,1.83
2019-01-31T12:08:02.742Z,1.88
2019-01-31T12:09:02.748Z,1.82
2019-01-31T12:10:02.763Z,1.81
2019-01-31T12:11:02.752Z,1.81
2019-01-31T12:12:02.694Z,1.85
2019-01-31T12:13:02.682Z,1.77
2019-01-31T12:14:02.674Z,1.72
2019-01-31T12:15:02.661Z,1.72
2019-01-31T12:16:02.732Z,1.71
2019-01-31T12:17:02.641Z,1.71
2019-01-31T12:18:02.680Z,1.60
2019-01-31T12:19:02.641Z,1.57
2019-01-31T12:20:02.653Z,1.53
2019-01-31T12:21:02.615Z,1.54
2019-01-31T12:22:02.623Z,1.53
2019-01-31T12:23:02.982Z,1.53
2019-01-31T12:24:02.573Z,1.54
2019-01-31T12:25:02.565Z,1.56
2019-01-31T12:26:02.567Z,1.56
2019-01-31T12:27:02.575Z,1.52
2019-01-31T12:28:02.574Z,1.53
2019-01-31T12:29:02.516Z,1.46
2019-01-31T12:30:02.530Z,1.46
2019-01-31T12:31:02.510Z,1.42
2019-01-31T12:32:02.537Z,1.43
2019-01-31T12:33:02.507Z,1.38
2019-01-31T12:34:02.461Z,1.36
2019-01-31T12:35:02.451Z,1.36
2019-01-31T12:36:02.439Z,1.38
2019-01-31T12:37:02.468Z,1.25
2019-01-31T12:38:02.556Z,1.24
2019-01-31T12:39:02.414Z,1.21
2019-01-31T12:40:02.421Z,1.16
2019-01-31T12:41:02.437Z,1.21
2019-01-31T12:42:02.435Z,1.13
2019-01-31T12:43:02.374Z,1.18
2019-01-31T12:44:02.424Z,1.14
2019-01-31T12:45:02.348Z,1.32
2019-01-31T12:46:02.345Z,1.20
2019-01-31T12:47:02.363Z,1.34
2019-01-31T12:48:02.323Z,1.32
2019-01-31T12:49:02.330Z,1.43
2019-01-31T12:50:02.305Z,1.46
2019-01-31T12:51:02.368Z,1.46
2019-01-31T12:52:04.146Z,1.50
2019-01-31T12:53:02.277Z,1.56
2019-01-31T12:54:02.262Z,1.54
2019-01-31T12:55:02.270Z,1.64
2019-01-31T12:56:02.245Z,1.63
2019-01-31T12:57:02.251Z,1.67
2019-01-31T12:58:02.292Z,1.70
2019-01-31T12:59:02.214Z,1.65
2019-01-31T13:00:02.193Z,1.67
2019-01-31T13:01:02.194Z,1.64
2019-01-31T13:02:02.255Z,1.70